createdAt,value
2023-01-13T00:01:57.712Z,100878.03
2023-01-13T00:05:00.467Z,100866.44
2023-01-13T00:08:04.964Z,100877.19
2023-01-13T00:11:07.586Z,100876.25
2023-01-13T00:14:09.977Z,100877.44
2023-01-13T00:17:12.577Z,100874.81
2023-01-13T00:20:15.231Z,100876.03
2023-01-13T00:23:17.942Z,100875.41
2023-01-13T00:26:26.184Z,100859.31
2023-01-13T00:29:29.176Z,100854.53
2023-01-13T00:32:31.782Z,100853.00
2023-01-13T00:35:34.412Z,100863.38
2023-01-13T00:38:37.785Z,100859.78
2023-01-13T00:41:59.249Z,100861.97
2023-01-13T00:45:02.137Z,100863.03
2023-01-13T00:48:04.743Z,100863.03
2023-01-13T00:51:11.078Z,100870.19
2023-01-13T00:54:13.716Z,100854.44
2023-01-13T00:57:16.172Z,100840.34
2023-01-13T01:00:19.540Z,100851.69
2023-01-13T01:03:21.921Z,100845.09
2023-01-13T01:06:26.819Z,100852.88
2023-01-13T01:09:32.777Z,100855.25
2023-01-13T01:12:35.476Z,100855.25
2023-01-13T01:15:41.669Z,100854.53
2023-01-13T01:18:46.746Z,100839.50
2023-01-13T01:21:49.046Z,100831.16
2023-01-13T01:24:51.631Z,100841.78
2023-01-13T01:27:54.275Z,100827.44
2023-01-13T01:30:58.528Z,100821.09
2023-01-13T01:34:01.359Z,100841.38
2023-01-13T01:37:03.941Z,100824.78
2023-01-13T01:40:09.116Z,100823.03
2023-01-13T01:43:35.677Z,100836.03
2023-01-13T01:46:40.441Z,100817.78
2023-01-13T01:49:45.687Z,100824.06
2023-01-13T01:52:54.464Z,100823.59
2023-01-13T01:55:59.408Z,100815.94
2023-01-13T01:59:02.058Z,100815.59
2023-01-13T02:02:04.769Z,100817.78
2023-01-13T02:05:07.850Z,100815.12
2023-01-13T02:08:13.185Z,100805.47
2023-01-13T02:11:51.709Z,100802.00
2023-01-13T02:14:54.109Z,100809.16
2023-01-13T02:18:11.991Z,100811.09
2023-01-13T02:21:32.548Z,100797.09
2023-01-13T02:25:01.387Z,100796.16
2023-01-13T02:29:07.733Z,100796.75
2023-01-13T02:32:26.110Z,100785.41
2023-01-13T02:35:33.166Z,100781.94
2023-01-13T02:38:49.070Z,100784.94
2023-01-13T02:42:20.054Z,100776.78
2023-01-13T02:45:29.075Z,100792.44
2023-01-13T02:48:32.994Z,100767.59
2023-01-13T02:51:38.651Z,100787.88
2023-01-13T02:54:47.459Z,100788.75
2023-01-13T02:57:51.324Z,100784.81
2023-01-13T03:00:53.846Z,100785.75
2023-01-13T03:03:56.517Z,100766.31
2023-01-13T03:07:12.874Z,100778.34
2023-01-13T03:10:34.133Z,100773.47
2023-01-13T03:13:54.886Z,100778.97
2023-01-13T03:17:09.587Z,100778.84
2023-01-13T03:20:27.399Z,100769.53
2023-01-13T03:24:05.687Z,100776.72
2023-01-13T03:27:11.788Z,100776.00
2023-01-13T03:30:29.727Z,100764.66
2023-01-13T03:33:40.466Z,100754.59
2023-01-13T03:36:46.765Z,100763.72
2023-01-13T03:39:56.504Z,100777.53
2023-01-13T03:43:42.584Z,100757.25
2023-01-13T03:46:50.774Z,100761.06
2023-01-13T03:49:55.966Z,100761.31
2023-01-13T03:53:14.013Z,100753.44
2023-01-13T03:56:30.075Z,100766.56
2023-01-13T03:59:38.645Z,100758.69
2023-01-13T04:02:52.892Z,100758.44
2023-01-13T04:06:04.284Z,100762.63
2023-01-13T04:09:18.126Z,100751.16
2023-01-13T04:12:28.452Z,100753.44
2023-01-13T04:15:57.381Z,100756.91
2023-01-13T04:19:00.090Z,100768.38
2023-01-13T04:22:02.549Z,100760.34
2023-01-13T04:25:08.026Z,100750.22
2023-01-13T04:28:11.202Z,100761.06
2023-01-13T04:31:13.896Z,100772.91
2023-01-13T04:34:16.309Z,100766.34
2023-01-13T04:37:19.005Z,100774.22
2023-01-13T04:40:21.489Z,100765.97
2023-01-13T04:43:24.198Z,100765.84
2023-01-13T04:46:26.713Z,100773.97
2023-01-13T04:49:29.510Z,100766.91
2023-01-13T04:52:31.864Z,100774.06
2023-01-13T04:55:35.379Z,100778.00
2023-01-13T04:58:37.756Z,100768.47
2023-01-13T05:01:40.658Z,100761.19
2023-01-13T05:04:43.111Z,100775.75
2023-01-13T05:07:45.919Z,100761.31
2023-01-13T05:10:48.249Z,100774.56
2023-01-13T05:14:09.667Z,100790.31
2023-01-13T05:17:24.130Z,100773.97
2023-01-13T05:20:26.871Z,100775.50
2023-01-13T05:23:47.875Z,100781.47
2023-01-13T05:26:50.570Z,100794.75
2023-01-13T05:29:53.772Z,100794.50
2023-01-13T05:32:56.799Z,100797.22
2023-01-13T05:36:02.789Z,100777.06
2023-01-13T05:39:05.441Z,100794.38
2023-01-13T05:42:26.687Z,100794.16
2023-01-13T05:45:31.671Z,100793.19
2023-01-13T05:48:42.544Z,100791.53
2023-01-13T05:51:45.253Z,100787.09
2023-01-13T05:54:47.621Z,100779.22
2023-01-13T05:57:50.251Z,100783.41
2023-01-13T06:00:53.298Z,100783.41
2023-01-13T06:03:55.958Z,100780.75
2023-01-13T06:06:58.257Z,100797.25
2023-01-13T06:10:00.832Z,100798.06
2023-01-13T06:13:04.167Z,100794.75
2023-01-13T06:16:07.077Z,100782.44
2023-01-13T06:19:13.493Z,100791.03
2023-01-13T06:22:17.592Z,100793.19
2023-01-13T06:25:26.585Z,100793.44
2023-01-13T06:28:29.323Z,100800.59
2023-01-13T06:31:35.595Z,100784.34
2023-01-13T06:34:40.098Z,100801.41
2023-01-13T06:37:45.029Z,100801.78
2023-01-13T06:40:48.039Z,100788.50
2023-01-13T06:43:50.405Z,100807.72
2023-01-13T06:46:53.241Z,100818.38
2023-01-13T06:49:55.732Z,100825.28
2023-01-13T06:52:59.116Z,100812.16
2023-01-13T06:56:01.598Z,100824.09
2023-01-13T06:59:04.247Z,100814.56
2023-01-13T07:02:06.833Z,100825.41
2023-01-13T07:05:09.720Z,100818.16
2023-01-13T07:08:12.377Z,100824.47
2023-01-13T07:11:15.202Z,100822.53
2023-01-13T07:14:36.470Z,100827.56
2023-01-13T07:17:39.138Z,100818.25
2023-01-13T07:20:41.499Z,100809.28
2023-01-13T07:23:44.257Z,100817.78
2023-01-13T07:26:46.625Z,100804.97
2023-01-13T07:29:49.353Z,100814.41
2023-01-13T07:32:51.729Z,100813.47
2023-01-13T07:36:00.203Z,100810.84
2023-01-13T07:39:03.023Z,100824.94
2023-01-13T07:42:24.457Z,100823.28
2023-01-13T07:45:26.936Z,100819.91
2023-01-13T07:48:30.559Z,100814.38
2023-01-13T07:51:37.460Z,100827.22
2023-01-13T07:54:41.320Z,100832.88
2023-01-13T07:57:43.800Z,100832.03
2023-01-13T08:00:46.650Z,100821.88
2023-01-13T08:03:49.425Z,100827.16
2023-01-13T08:06:51.754Z,100837.28
2023-01-13T08:09:54.408Z,100843.87
2023-01-13T08:13:15.629Z,100840.13
2023-01-13T08:16:18.387Z,100847.72
2023-01-13T08:19:20.767Z,100856.06
2023-01-13T08:22:23.396Z,100854.16
2023-01-13T08:25:27.117Z,100850.59
2023-01-13T08:28:30.131Z,100849.06
2023-01-13T08:31:32.448Z,100859.56
2023-01-13T08:34:36.231Z,100868.16
2023-01-13T08:37:39.129Z,100866.59
2023-01-13T08:40:41.862Z,100855.00
2023-01-13T08:43:44.214Z,100854.91
2023-01-13T08:46:47.022Z,100864.31
2023-01-13T08:49:49.440Z,100865.75
2023-01-13T08:52:52.063Z,100864.41
2023-01-13T08:55:54.423Z,100871.34
2023-01-13T08:59:00.909Z,100867.53
2023-01-13T09:02:04.444Z,100881.06
2023-01-13T09:05:08.287Z,100874.37
2023-01-13T09:08:10.608Z,100864.94
2023-01-13T09:11:52.691Z,100873.28
2023-01-13T09:14:55.020Z,100863.72
2023-01-13T09:17:57.732Z,100868.88
2023-01-13T09:21:00.079Z,100864.34
2023-01-13T09:24:02.771Z,100850.97
2023-01-13T09:27:05.136Z,100867.69
2023-01-13T09:30:08.943Z,100864.34
2023-01-13T09:33:30.305Z,100874.13
2023-01-13T09:36:33.045Z,100864.25
2023-01-13T09:39:36.479Z,100864.31
2023-01-13T09:43:04.864Z,100871.94
2023-01-13T09:46:47.224Z,100866.59
2023-01-13T09:49:50.701Z,100858.38
2023-01-13T09:52:53.565Z,100855.22
2023-01-13T09:55:56.616Z,100863.03
2023-01-13T09:58:59.052Z,100863.84
2023-01-13T10:02:22.346Z,100845.94
2023-01-13T10:05:37.297Z,100855.13
2023-01-13T10:08:42.632Z,100846.16
2023-01-13T10:12:07.283Z,100842.00
2023-01-13T10:15:19.911Z,100857.87
2023-01-13T10:18:35.477Z,100843.28
2023-01-13T10:21:52.571Z,100857.34
2023-01-13T10:25:20.952Z,100844.44
2023-01-13T10:28:25.183Z,100836.34
2023-01-13T10:31:28.205Z,100857.81
2023-01-13T10:34:30.649Z,100851.75
2023-01-13T10:37:33.439Z,100856.41
2023-01-13T10:40:35.808Z,100850.19
2023-01-13T10:43:38.720Z,100835.56
2023-01-13T10:46:53.538Z,100823.87
2023-01-13T10:50:17.187Z,100818.84
2023-01-13T10:53:31.016Z,100832.41
2023-01-13T10:56:41.047Z,100828.78
2023-01-13T10:59:54.957Z,100826.41
2023-01-13T11:03:09.906Z,100795.38
2023-01-13T11:06:30.349Z,100800.16
2023-01-13T11:09:33.820Z,100791.34
2023-01-13T11:13:08.721Z,100785.44
2023-01-13T11:16:16.520Z,100787.34
2023-01-13T11:19:22.755Z,100797.50
2023-01-13T11:22:34.065Z,100780.94
2023-01-13T11:25:46.880Z,100776.34
2023-01-13T11:28:58.280Z,100765.47
2023-01-13T11:32:29.621Z,100778.94
2023-01-13T11:35:36.081Z,100773.88
2023-01-13T11:38:53.899Z,100769.06
2023-01-13T11:42:20.487Z,100768.16
2023-01-13T11:45:42.631Z,100783.84
2023-01-13T11:48:45.471Z,100781.12
2023-01-13T11:52:15.090Z,100766.41
2023-01-13T11:55:54.462Z,100762.69
2023-01-13T11:59:11.927Z,100749.94
2023-01-13T12:02:39.211Z,100740.78
2023-01-13T12:05:59.711Z,100729.13
2023-01-13T12:09:48.805Z,100728.25
2023-01-13T12:13:03.393Z,100717.97
2023-01-13T12:16:26.155Z,100706.44
2023-01-13T12:19:32.475Z,100699.84
2023-01-13T12:22:37.286Z,100701.47
2023-01-13T12:25:47.205Z,100699.50
2023-01-13T12:28:56.336Z,100690.03
2023-01-13T12:32:01.821Z,100689.28
2023-01-13T12:35:34.577Z,100697.78
2023-01-13T12:38:44.886Z,100691.19
2023-01-13T12:42:14.347Z,100716.47
2023-01-13T12:45:30.370Z,100712.72
2023-01-13T12:48:59.511Z,100711.31
2023-01-13T12:52:13.988Z,100708.22
2023-01-13T12:55:20.117Z,100708.22
2023-01-13T12:58:28.653Z,100707.22
2023-01-13T13:01:36.043Z,100701.25
2023-01-13T13:04:43.403Z,100691.06
2023-01-13T13:07:49.762Z,100706.00
2023-01-13T13:11:37.928Z,100695.00
2023-01-13T13:14:40.276Z,100706.50
2023-01-13T13:17:44.841Z,100707.69
2023-01-13T13:21:13.742Z,100711.19
2023-01-13T13:24:18.215Z,100716.34
2023-01-13T13:27:40.949Z,100720.34
2023-01-13T13:30:57.961Z,100718.63
2023-01-13T13:34:16.279Z,100701.94
2023-01-13T13:37:55.844Z,100715.69
2023-01-13T13:41:17.733Z,100697.34
2023-01-13T13:44:49.441Z,100709.28
2023-01-13T13:47:51.810Z,100697.25
2023-01-13T13:51:02.145Z,100706.53
2023-01-13T13:54:05.046Z,100704.25
2023-01-13T13:57:32.292Z,100718.22
2023-01-13T14:00:38.061Z,100729.72
2023-01-13T14:03:40.812Z,100736.62
2023-01-13T14:06:51.838Z,100735.72
2023-01-13T14:09:56.436Z,100724.97
2023-01-13T14:13:00.754Z,100725.03
2023-01-13T14:16:11.392Z,100738.69
2023-01-13T14:19:28.758Z,100739.53
2023-01-13T14:22:32.732Z,100737.09
2023-01-13T14:25:49.196Z,100743.72
2023-01-13T14:28:52.769Z,100742.63
2023-01-13T14:31:55.319Z,100734.75
2023-01-13T14:34:57.996Z,100731.59
2023-01-13T14:38:04.395Z,100711.47
2023-01-13T14:41:25.851Z,100726.41
2023-01-13T14:44:31.753Z,100716.50
2023-01-13T14:47:34.557Z,100732.31
2023-01-13T14:50:37.147Z,100730.62
2023-01-13T14:53:46.978Z,100746.34
2023-01-13T14:56:50.599Z,100743.41
2023-01-13T15:00:14.059Z,100730.72
2023-01-13T15:03:21.454Z,100719.63
2023-01-13T15:06:26.111Z,100734.31
2023-01-13T15:09:36.535Z,100741.81
2023-01-13T15:12:40.806Z,100731.28
2023-01-13T15:15:43.185Z,100719.31
2023-01-13T15:18:46.087Z,100723.47
2023-01-13T15:21:48.536Z,100715.97
2023-01-13T15:24:51.190Z,100725.66
2023-01-13T15:27:53.805Z,100713.72
2023-01-13T15:31:00.720Z,100730.12
2023-01-13T15:34:03.229Z,100740.06
2023-01-13T15:37:05.950Z,100731.50
2023-01-13T15:40:18.236Z,100736.66
2023-01-13T15:43:42.558Z,100721.13
2023-01-13T15:46:45.313Z,100737.22
2023-01-13T15:49:48.095Z,100737.16
2023-01-13T15:52:50.492Z,100732.25
2023-01-13T15:55:56.535Z,100749.44
2023-01-13T15:58:59.122Z,100755.13
2023-01-13T16:02:01.796Z,100744.78
2023-01-13T16:05:05.606Z,100753.19
2023-01-13T16:08:19.276Z,100748.84
2023-01-13T16:11:21.891Z,100745.00
2023-01-13T16:14:24.226Z,100750.50
2023-01-13T16:17:30.220Z,100740.53
2023-01-13T16:20:32.624Z,100741.59
2023-01-13T16:23:35.234Z,100733.84
2023-01-13T16:26:38.953Z,100741.16
2023-01-13T16:29:42.290Z,100738.25
2023-01-13T16:32:44.627Z,100749.34
2023-01-13T16:36:10.388Z,100755.44
2023-01-13T16:39:21.857Z,100745.75
2023-01-13T16:42:24.547Z,100738.19
2023-01-13T16:45:27.592Z,100737.50
2023-01-13T16:48:30.255Z,100735.78
2023-01-13T16:51:33.737Z,100742.81
2023-01-13T16:54:36.808Z,100737.00
2023-01-13T16:57:39.246Z,100722.06
2023-01-13T17:00:42.007Z,100727.44
2023-01-13T17:03:44.554Z,100728.28
2023-01-13T17:07:08.380Z,100727.44
2023-01-13T17:10:20.264Z,100733.28
2023-01-13T17:13:26.605Z,100730.78
2023-01-13T17:16:28.971Z,100736.81
2023-01-13T17:19:31.685Z,100735.47
2023-01-13T17:22:34.027Z,100729.03
2023-01-13T17:25:36.612Z,100738.34
2023-01-13T17:28:38.963Z,100758.50
2023-01-13T17:31:41.847Z,100763.03
2023-01-13T17:34:45.249Z,100743.16
2023-01-13T17:37:47.930Z,100741.00
2023-01-13T17:40:50.308Z,100749.66
2023-01-13T17:43:53.754Z,100747.91
2023-01-13T17:46:56.825Z,100756.16
2023-01-13T17:49:59.651Z,100770.66
2023-01-13T17:53:01.989Z,100767.00
2023-01-13T17:56:04.812Z,100772.31
2023-01-13T17:59:10.084Z,100767.47
2023-01-13T18:02:15.355Z,100763.34
2023-01-13T18:05:18.103Z,100763.13
2023-01-13T18:08:21.716Z,100757.53
2023-01-13T18:11:25.031Z,100757.28
2023-01-13T18:14:28.166Z,100773.13
2023-01-13T18:17:30.913Z,100758.19
2023-01-13T18:20:51.767Z,100773.13
2023-01-13T18:24:13.041Z,100779.78
2023-01-13T18:27:19.916Z,100774.84
2023-01-13T18:30:22.693Z,100774.22
2023-01-13T18:33:25.274Z,100779.72
2023-01-13T18:36:28.042Z,100768.87
2023-01-13T18:39:30.411Z,100778.12
2023-01-13T18:42:51.507Z,100780.88
2023-01-13T18:45:53.995Z,100778.97
2023-01-13T18:48:56.869Z,100785.63
2023-01-13T18:51:59.286Z,100794.66
2023-01-13T18:55:01.987Z,100771.69
2023-01-13T18:58:04.543Z,100781.19
2023-01-13T19:01:07.301Z,100791.97
2023-01-13T19:04:18.897Z,100788.12
2023-01-13T19:07:28.407Z,100793.84
2023-01-13T19:10:32.490Z,100796.84
2023-01-13T19:13:36.307Z,100783.59
2023-01-13T19:16:39.260Z,100793.44
2023-01-13T19:19:53.795Z,100784.84
2023-01-13T19:22:56.218Z,100793.13
2023-01-13T19:26:03.822Z,100795.66
2023-01-13T19:29:06.350Z,100796.69
2023-01-13T19:32:09.679Z,100803.37
2023-01-13T19:35:17.793Z,100813.31
2023-01-13T19:38:20.845Z,100813.37
2023-01-13T19:41:41.791Z,100818.66
2023-01-13T19:45:02.993Z,100822.75
2023-01-13T19:48:08.253Z,100824.94
2023-01-13T19:51:14.361Z,100828.91
2023-01-13T19:54:16.704Z,100832.31
2023-01-13T19:57:20.327Z,100849.12
2023-01-13T20:00:23.795Z,100849.94
2023-01-13T20:03:31.006Z,100859.63
2023-01-13T20:06:33.604Z,100872.00
2023-01-13T20:09:36.442Z,100876.03
2023-01-13T20:12:39.161Z,100865.81
2023-01-13T20:15:42.692Z,100866.41
2023-01-13T20:18:49.115Z,100873.03
2023-01-13T20:21:51.711Z,100829.47
2023-01-13T20:24:55.181Z,100852.22
2023-01-13T20:27:58.785Z,100852.78
2023-01-13T20:31:01.189Z,100842.69
2023-01-13T20:34:03.939Z,100850.97
2023-01-13T20:37:06.305Z,100832.94
2023-01-13T20:40:12.984Z,100827.50
2023-01-13T20:43:17.597Z,100827.56
2023-01-13T20:46:22.588Z,100834.50
2023-01-13T20:49:26.857Z,100832.91
2023-01-13T20:52:29.565Z,100822.88
2023-01-13T20:55:31.999Z,100849.94
2023-01-13T20:58:34.837Z,100852.09
2023-01-13T21:01:37.859Z,100854.50
2023-01-13T21:04:40.833Z,100852.31
2023-01-13T21:07:43.198Z,100857.47
2023-01-13T21:10:45.953Z,100857.06
2023-01-13T21:14:06.801Z,100867.31
2023-01-13T21:17:29.431Z,100858.97
2023-01-13T21:20:34.077Z,100847.28
2023-01-13T21:23:36.852Z,100842.88
2023-01-13T21:26:40.202Z,100845.34
2023-01-13T21:29:44.616Z,100833.78
2023-01-13T21:32:47.443Z,100838.72
2023-01-13T21:35:50.209Z,100827.03
2023-01-13T21:38:54.242Z,100825.44
2023-01-13T21:42:15.628Z,100822.59
2023-01-13T21:45:37.524Z,100823.16
2023-01-13T21:48:40.702Z,100813.88
2023-01-13T21:51:44.900Z,100822.97
2023-01-13T21:55:06.764Z,100826.81
2023-01-13T21:58:15.560Z,100807.28
2023-01-13T22:01:19.256Z,100802.84
2023-01-13T22:04:22.447Z,100800.78
2023-01-13T22:07:25.745Z,100806.09
2023-01-13T22:10:30.733Z,100801.06
2023-01-13T22:13:51.862Z,100828.47
2023-01-13T22:16:56.791Z,100855.28
2023-01-13T22:19:59.999Z,100873.94
2023-01-13T22:23:03.007Z,100893.59
2023-01-13T22:26:06.977Z,100906.53
2023-01-13T22:29:09.810Z,100907.09
2023-01-13T22:32:12.417Z,100899.59
2023-01-13T22:35:16.128Z,100914.97
2023-01-13T22:38:18.472Z,100908.88
2023-01-13T22:41:21.187Z,100904.13
2023-01-13T22:44:23.802Z,100923.56
2023-01-13T22:47:26.415Z,100929.44
2023-01-13T22:50:28.826Z,100928.94
2023-01-13T22:53:31.460Z,100919.97
2023-01-13T22:56:34.027Z,100930.53
2023-01-13T22:59:36.784Z,100931.91
2023-01-13T23:02:39.138Z,100908.13
2023-01-13T23:05:42.035Z,100907.28
2023-01-13T23:08:45.543Z,100906.28
2023-01-13T23:11:48.334Z,100894.41
2023-01-13T23:14:50.744Z,100883.88
2023-01-13T23:17:53.477Z,100875.31
2023-01-13T23:20:55.935Z,100853.81
2023-01-13T23:24:00.461Z,100831.72
2023-01-13T23:27:02.931Z,100844.13
2023-01-13T23:30:07.661Z,100833.69
2023-01-13T23:33:10.052Z,100841.13
2023-01-13T23:36:24.125Z,100854.66
2023-01-13T23:39:26.942Z,100860.16
2023-01-13T23:42:29.601Z,100863.00
2023-01-13T23:45:32.502Z,100848.06
2023-01-13T23:48:36.121Z,100849.28
2023-01-13T23:51:38.517Z,100845.97
2023-01-13T23:54:41.135Z,100837.19
2023-01-13T23:57:43.475Z,100839.09
